Time;durP1;ratioP1;P1;durP2;ratioP2;P2;SDS_P1;SDS_P2;PMS_P1;PMS_P2;Temp;Humidity;BMP_temperature;BMP_pressure;BME280_temperature;BME280_humidity;BME280_pressure;Samples;Min_cycle;Max_cycle;Signal;HPM_P1;HPM_P2
2022/07/20 00:03:03;;;;;;;;;14.00;14.00;;;;;26.35;42.48;99203.75;6091169;28;96998;-62
2022/07/20 00:06:07;;;;;;;;;13.00;10.60;;;;;26.32;42.50;99204.41;6089922;28;97918;-59
2022/07/20 00:12:32;;;;;;;;;11.20;11.20;;;;;26.22;43.05;99199.97;6091268;28;97024;-60
2022/07/20 00:15:36;;;;;;;;;15.00;13.00;;;;;26.15;42.90;99196.78;6091952;28;97078;-60
2022/07/20 00:18:40;;;;;;;;;15.00;14.00;;;;;26.10;42.96;99198.88;6091932;28;96550;-62
2022/07/20 00:21:43;;;;;;;;;14.20;13.40;;;;;26.05;42.86;99191.53;6092159;28;96736;-62
2022/07/20 00:24:47;;;;;;;;;15.00;15.00;;;;;26.02;42.79;99196.88;6092377;28;97460;-63
2022/07/20 00:27:50;;;;;;;;;14.00;12.40;;;;;25.98;42.67;99188.41;6091344;28;96886;-60
2022/07/20 00:30:55;;;;;;;;;12.50;11.50;;;;;25.97;42.60;99191.50;6091651;28;97428;-62
2022/07/20 00:33:59;;;;;;;;;14.00;12.60;;;;;25.96;42.51;99195.38;6090727;28;97706;-60
2022/07/20 00:37:03;;;;;;;;;13.60;12.00;;;;;25.93;42.45;99188.53;6089529;28;97489;-63
2022/07/20 00:40:08;;;;;;;;;13.00;12.00;;;;;25.91;42.31;99188.03;6091424;28;97440;-63
2022/07/20 00:43:11;;;;;;;;;11.00;11.00;;;;;25.90;42.49;99188.38;6089940;28;97367;-63
2022/07/20 00:46:16;;;;;;;;;14.00;14.00;;;;;25.87;42.61;99189.81;6091561;28;97204;-65
2022/07/20 00:49:19;;;;;;;;;16.00;16.00;;;;;25.84;42.70;99191.25;6091476;28;96794;-60
2022/07/20 00:52:24;;;;;;;;;14.00;14.00;;;;;25.84;42.83;99191.25;6089506;28;96519;-63
2022/07/20 00:55:28;;;;;;;;;13.25;12.00;;;;;25.83;42.92;99195.16;6090729;28;97068;-63
2022/07/20 00:58:33;;;;;;;;;12.60;12.40;;;;;25.82;43.12;99189.94;6089798;28;96728;-62
2022/07/20 01:01:39;;;;;;;;;15.00;13.00;;;;;25.81;43.27;99191.88;6089609;28;96737;-63
2022/07/20 01:04:43;;;;;;;;;13.40;13.40;;;;;25.79;43.22;99190.56;6091546;28;97557;-62
2022/07/20 01:07:49;;;;;;;;;14.00;13.60;;;;;25.77;43.24;99193.63;6090322;28;98072;-59
2022/07/20 01:10:53;;;;;;;;;14.00;13.50;;;;;25.73;43.26;99189.06;6091396;28;97136;-62
2022/07/20 01:14:01;;;;;;;;;11.50;11.00;;;;;25.68;43.27;99189.19;6092129;28;96534;-64
2022/07/20 01:17:06;;;;;;;;;13.20;12.20;;;;;25.63;43.42;99186.53;6090253;28;97996;-62
2022/07/20 01:20:16;;;;;;;;;15.00;12.40;;;;;25.59;43.56;99189.13;6086894;28;96884;-64
2022/07/20 01:23:21;;;;;;;;;11.00;10.00;;;;;25.54;43.51;99183.69;6080028;28;96689;-61
2022/07/20 01:26:24;;;;;;;;;14.20;13.00;;;;;25.51;43.65;99181.53;6066985;28;96931;-63
2022/07/20 01:29:28;;;;;;;;;12.60;12.60;;;;;25.48;43.83;99184.94;6067059;28;98122;-58
2022/07/20 01:32:31;;;;;;;;;14.60;14.00;;;;;25.45;43.71;99182.81;6090014;28;97452;-62
2022/07/20 01:35:35;;;;;;;;;15.00;14.60;;;;;25.41;43.87;99188.09;6089449;28;96993;-59
2022/07/20 01:38:40;;;;;;;;;11.60;11.60;;;;;25.38;43.77;99187.94;6067108;28;96476;-62
2022/07/20 01:41:43;;;;;;;;;13.00;13.00;;;;;25.32;44.03;99183.63;6095690;28;97095;-60
2022/07/20 01:44:46;;;;;;;;;12.00;11.00;;;;;25.32;44.11;99187.22;6087667;28;96516;-63
2022/07/20 01:47:50;;;;;;;;;13.00;13.00;;;;;25.28;44.04;99186.22;6089501;28;97569;-61
2022/07/20 01:50:54;;;;;;;;;14.00;13.00;;;;;25.25;44.01;99186.84;6087800;28;96651;-60
2022/07/20 01:53:58;;;;;;;;;13.80;13.60;;;;;25.22;44.03;99189.38;6089874;28;98042;-61
2022/07/20 01:57:02;;;;;;;;;14.00;13.00;;;;;25.19;44.07;99193.59;6090128;28;96432;-59
2022/07/20 02:00:06;;;;;;;;;16.00;15.00;;;;;25.16;44.05;99188.72;6088991;28;97985;-61
2022/07/20 02:03:14;;;;;;;;;12.50;12.50;;;;;25.13;44.19;99189.31;6085471;28;97485;-62
2022/07/20 02:06:17;;;;;;;;;10.80;10.80;;;;;25.11;44.32;99196.28;6089880;28;96788;-63
2022/07/20 02:09:22;;;;;;;;;11.00;11.00;;;;;25.08;44.16;99186.66;6088440;28;98607;-62
2022/07/20 02:12:25;;;;;;;;;12.60;12.60;;;;;25.03;44.21;99195.06;6092670;28;96494;-62
2022/07/20 02:18:51;;;;;;;;;11.80;11.80;;;;;24.94;44.16;99197.72;6109197;28;96875;-63
2022/07/20 02:21:55;;;;;;;;;13.60;12.20;;;;;24.91;44.23;99194.78;6092006;28;97981;-59
2022/07/20 02:25:00;;;;;;;;;12.60;11.60;;;;;24.87;44.23;99191.81;6093646;28;97564;-63
2022/07/20 02:28:04;;;;;;;;;12.00;11.00;;;;;24.84;44.21;99194.34;6070089;28;96952;-61
2022/07/20 02:31:08;;;;;;;;;12.00;12.00;;;;;24.81;44.48;99194.97;6079503;28;96726;-61
2022/07/20 02:34:13;;;;;;;;;12.00;11.00;;;;;24.77;44.48;99200.28;6091894;28;99415;-59
2022/07/20 02:37:16;;;;;;;;;11.60;11.60;;;;;24.75;44.38;99201.69;6093456;28;96960;-61
2022/07/20 02:40:21;;;;;;;;;11.00;10.00;;;;;24.71;44.26;99193.22;6091770;28;97351;-61
2022/07/20 02:43:24;;;;;;;;;12.00;12.00;;;;;24.69;44.57;99194.66;6091459;28;97044;-62
2022/07/20 02:46:28;;;;;;;;;17.40;16.60;;;;;24.67;44.30;99186.69;6093626;28;97581;-61
2022/07/20 02:49:31;;;;;;;;;18.20;17.20;;;;;24.66;44.32;99189.75;6093899;28;96559;-64
2022/07/20 02:52:35;;;;;;;;;15.00;15.00;;;;;24.64;44.29;99192.81;6091827;28;97142;-62
2022/07/20 02:55:41;;;;;;;;;15.67;14.67;;;;;24.63;44.32;99193.94;6093736;28;97190;-59
2022/07/20 02:58:45;;;;;;;;;14.60;14.00;;;;;24.63;44.66;99187.63;6092865;28;97531;-61
2022/07/20 03:01:48;;;;;;;;;14.25;14.25;;;;;24.63;44.21;99191.16;6102512;28;96975;-61
2022/07/20 03:04:52;;;;;;;;;12.25;12.00;;;;;24.64;44.46;99186.47;6078737;28;97538;-60
2022/07/20 03:07:55;;;;;;;;;13.00;12.20;;;;;24.65;44.37;99179.84;6091795;28;97012;-61
2022/07/20 03:11:00;;;;;;;;;16.00;15.00;;;;;24.67;44.32;99189.47;6093508;28;96802;-59
2022/07/20 03:14:03;;;;;;;;;14.00;13.00;;;;;24.68;44.11;99185.56;6092833;28;96824;-61
2022/07/20 03:17:06;;;;;;;;;15.00;14.75;;;;;24.70;44.22;99190.78;6089433;28;96376;-60
2022/07/20 03:20:11;;;;;;;;;13.40;12.40;;;;;24.71;44.31;99192.41;6092735;28;97557;-62
2022/07/20 03:23:14;;;;;;;;;14.40;14.00;;;;;24.73;44.34;99188.22;6092101;28;97429;-64
2022/07/20 03:26:21;;;;;;;;;14.50;14.50;;;;;24.76;44.43;99193.13;6090406;28;97693;-61
2022/07/20 03:29:24;;;;;;;;;16.80;16.00;;;;;24.80;44.78;99201.59;6092689;28;97160;-64
2022/07/20 03:32:28;;;;;;;;;15.25;15.00;;;;;24.84;44.27;99197.91;6091863;28;97058;-61
2022/07/20 03:35:32;;;;;;;;;19.00;17.00;;;;;24.89;44.52;99194.25;6086628;28;97856;-61
2022/07/20 03:38:36;;;;;;;;;16.00;16.00;;;;;24.94;44.37;99205.19;6088065;28;97512;-62
2022/07/20 03:41:46;;;;;;;;;13.60;12.60;;;;;24.98;44.22;99207.00;6091819;28;96991;-61
2022/07/20 03:44:49;;;;;;;;;13.00;13.00;;;;;25.03;44.37;99209.66;6093035;28;98020;-63
2022/07/20 03:47:52;;;;;;;;;20.00;18.00;;;;;25.08;44.26;99202.41;6089993;28;97577;-64
2022/07/20 03:50:56;;;;;;;;;14.80;14.40;;;;;25.12;44.21;99207.00;6088785;28;98447;-60
2022/07/20 03:53:59;;;;;;;;;14.00;14.00;;;;;25.19;44.12;99207.41;6091588;28;96832;-60
2022/07/20 03:57:06;;;;;;;;;15.40;14.80;;;;;25.26;44.10;99213.31;6091195;28;97233;-62
2022/07/20 04:00:10;;;;;;;;;13.25;13.25;;;;;25.34;44.01;99217.28;6091672;28;96727;-61
2022/07/20 04:03:13;;;;;;;;;13.60;12.40;;;;;25.43;43.60;99218.16;6091070;28;97442;-60
2022/07/20 04:06:17;;;;;;;;;12.60;12.40;;;;;25.53;42.83;99226.22;6091408;28;97749;-60
2022/07/20 04:09:43;;;;;;;;;13.00;11.00;;;;;25.65;42.22;99229.28;6093469;28;97455;-62
2022/07/20 04:12:46;;;;;;;;;12.00;11.00;;;;;25.76;41.49;99230.66;6085281;28;96413;-59
2022/07/20 04:15:49;;;;;;;;;8.00;7.20;;;;;25.86;40.83;99233.19;6083120;28;97382;-61
2022/07/20 04:18:53;;;;;;;;;15.40;15.40;;;;;25.98;40.71;99237.31;6090404;28;96756;-60
2022/07/20 04:21:58;;;;;;;;;13.00;13.00;;;;;26.08;40.68;99234.31;6091220;28;97040;-60
2022/07/20 04:25:02;;;;;;;;;11.00;11.00;;;;;26.19;40.30;99235.69;6091346;28;97260;-61
2022/07/20 04:28:06;;;;;;;;;13.00;12.00;;;;;26.31;40.02;99233.19;6091828;28;97458;-60
2022/07/20 04:31:10;;;;;;;;;11.00;10.75;;;;;26.44;39.69;99235.03;6090390;28;97290;-62
2022/07/20 04:34:13;;;;;;;;;13.00;11.60;;;;;26.55;39.49;99241.09;6090098;28;97015;-57
2022/07/20 04:37:16;;;;;;;;;13.00;11.60;;;;;26.64;39.10;99233.66;6088693;28;97064;-57
2022/07/20 04:40:20;;;;;;;;;10.60;10.00;;;;;26.74;39.04;99238.91;6089793;28;97312;-57
2022/07/20 04:43:24;;;;;;;;;11.00;10.60;;;;;26.87;38.88;99237.22;6091172;28;96807;-61
2022/07/20 04:46:29;;;;;;;;;12.00;11.00;;;;;26.99;38.31;99248.47;6090868;28;98192;-61
2022/07/20 04:49:32;;;;;;;;;8.67;8.67;;;;;27.09;38.24;99232.38;6088886;28;98156;-60
2022/07/20 04:52:36;;;;;;;;;11.50;10.00;;;;;27.23;38.52;99245.28;6091037;28;96665;-62
2022/07/20 04:55:40;;;;;;;;;9.00;9.00;;;;;27.34;38.33;99247.41;6087470;28;96752;-60
2022/07/20 04:58:47;;;;;;;;;11.00;10.40;;;;;27.45;37.88;99248.75;6090794;28;96892;-60
2022/07/20 05:01:51;;;;;;;;;9.00;9.00;;;;;27.59;38.30;99254.16;6089967;28;96883;-61
2022/07/20 05:04:54;;;;;;;;;8.25;8.00;;;;;27.71;37.88;99256.31;6088849;28;97863;-65
2022/07/20 05:07:58;;;;;;;;;10.00;9.00;;;;;27.85;37.94;99249.47;6089204;28;96703;-63
2022/07/20 05:11:02;;;;;;;;;10.40;9.40;;;;;27.98;38.04;99250.41;6089030;28;97372;-59
2022/07/20 05:14:14;;;;;;;;;10.50;10.50;;;;;28.06;37.82;99248.75;6090880;28;96377;-65
2022/07/20 05:17:18;;;;;;;;;12.00;11.00;;;;;28.14;37.59;99254.34;6089815;28;98442;-61
2022/07/20 05:20:21;;;;;;;;;10.00;8.40;;;;;28.25;37.59;99249.25;6090095;28;98640;-62
2022/07/20 05:23:25;;;;;;;;;11.00;9.00;;;;;28.37;37.91;99255.75;6089301;28;96778;-59
2022/07/20 05:26:28;;;;;;;;;11.80;10.00;;;;;28.48;37.53;99253.44;6090686;28;96426;-59
2022/07/20 05:29:33;;;;;;;;;12.00;12.00;;;;;28.64;37.04;99256.47;6088880;28;97169;-62
2022/07/20 05:32:37;;;;;;;;;10.40;10.00;;;;;28.74;35.78;99250.59;6072445;28;96981;-60
2022/07/20 05:35:40;;;;;;;;;11.00;10.33;;;;;28.92;36.98;99257.72;6088104;28;97251;-60
2022/07/20 05:38:43;;;;;;;;;13.00;12.00;;;;;29.03;36.61;99261.72;6089009;28;97465;-62
2022/07/20 05:41:49;;;;;;;;;11.25;10.25;;;;;29.11;36.24;99260.88;6080928;28;97280;-57
2022/07/20 05:44:54;;;;;;;;;10.75;10.00;;;;;29.19;35.44;99267.53;6089787;28;97029;-51
2022/07/20 05:47:57;;;;;;;;;9.00;8.00;;;;;29.26;35.23;99263.09;6094935;28;97039;-57
2022/07/20 05:51:01;;;;;;;;;9.00;9.00;;;;;29.34;35.36;99263.38;6094353;28;97079;-57
2022/07/20 05:54:05;;;;;;;;;8.00;8.00;;;;;29.44;35.83;99268.56;6094841;28;96287;-64
2022/07/20 05:57:09;;;;;;;;;9.40;9.00;;;;;29.48;35.31;99261.97;6093056;28;98609;-65
2022/07/20 06:00:17;;;;;;;;;9.33;9.33;;;;;29.65;35.41;99274.94;6093995;28;96888;-60
2022/07/20 06:03:20;;;;;;;;;10.00;9.60;;;;;29.73;35.90;99270.47;6092982;28;97615;-61
2022/07/20 06:06:24;;;;;;;;;10.00;9.00;;;;;29.82;36.08;99271.19;6092937;28;97463;-61
2022/07/20 06:09:27;;;;;;;;;10.00;9.80;;;;;29.88;35.81;99273.44;6094140;28;97253;-62
2022/07/20 06:12:31;;;;;;;;;11.75;11.00;;;;;30.00;35.57;99286.63;6094022;28;96587;-60
2022/07/20 06:15:36;;;;;;;;;11.00;10.00;;;;;30.06;35.21;99282.47;6094159;28;98087;-57
2022/07/20 06:18:39;;;;;;;;;9.60;9.60;;;;;30.20;34.36;99298.91;6094292;28;97376;-62
2022/07/20 06:21:42;;;;;;;;;10.00;10.00;;;;;30.28;34.08;99295.19;6094407;28;97514;-58
2022/07/20 06:24:46;;;;;;;;;8.80;8.80;;;;;30.36;33.83;99294.28;6092738;28;96749;-57
2022/07/20 06:28:00;;;;;;;;;11.25;10.00;;;;;30.47;34.35;99285.22;6092304;28;97468;-60
2022/07/20 06:31:06;;;;;;;;;11.00;11.00;;;;;30.57;34.14;99300.66;6093032;28;97598;-57
2022/07/20 06:34:10;;;;;;;;;11.00;10.00;;;;;30.67;33.92;99294.66;6092543;28;97067;-59
2022/07/20 06:37:13;;;;;;;;;8.00;6.75;;;;;30.79;32.88;99300.22;6093990;28;96861;-60
2022/07/20 06:40:17;;;;;;;;;10.00;8.80;;;;;30.89;33.07;99297.00;6094307;28;97464;-61
2022/07/20 06:43:22;;;;;;;;;8.40;8.40;;;;;31.01;33.15;99295.41;6094018;28;96490;-63
2022/07/20 06:46:26;;;;;;;;;8.20;7.00;;;;;31.11;33.50;99295.78;6080493;28;97269;-61
2022/07/20 06:49:30;;;;;;;;;8.00;8.00;;;;;31.21;32.56;99302.88;6078652;28;98369;-59
2022/07/20 06:52:34;;;;;;;;;10.25;10.00;;;;;31.22;31.86;99296.13;6082140;28;96382;-65
2022/07/20 06:55:39;;;;;;;;;9.00;9.00;;;;;31.40;32.46;99295.53;6094143;28;97022;-62
2022/07/20 06:58:42;;;;;;;;;9.25;8.75;;;;;31.51;32.34;99295.88;6092564;28;96750;-65
2022/07/20 07:01:47;;;;;;;;;9.80;9.00;;;;;31.62;31.68;99294.25;6093323;28;97436;-58
2022/07/20 07:04:51;;;;;;;;;8.00;8.00;;;;;31.74;31.49;99305.38;6094392;28;97999;-61
2022/07/20 07:07:54;;;;;;;;;8.40;8.40;;;;;31.84;31.06;99287.34;6092465;28;97785;-59
2022/07/20 07:10:58;;;;;;;;;10.25;10.25;;;;;31.95;30.96;99294.06;6092963;28;97123;-65
2022/07/20 07:14:03;;;;;;;;;11.40;10.00;;;;;32.08;31.51;99287.28;6092443;28;97545;-63
2022/07/20 07:17:07;;;;;;;;;10.20;9.00;;;;;32.21;31.20;99300.03;6093154;28;97618;-51
2022/07/20 07:20:12;;;;;;;;;10.60;10.00;;;;;32.35;31.37;99293.25;6092906;28;98948;-56
2022/07/20 07:23:15;;;;;;;;;10.00;9.20;;;;;32.49;31.43;99290.84;6092839;28;96735;-56
2022/07/20 07:26:20;;;;;;;;;9.75;9.00;;;;;32.63;30.97;99292.06;6093071;28;96645;-55
2022/07/20 07:29:24;;;;;;;;;9.20;8.80;;;;;32.75;29.83;99299.53;6093212;28;96892;-60
2022/07/20 07:32:28;;;;;;;;;9.20;8.20;;;;;32.86;29.39;99289.47;6092719;28;96831;-54
2022/07/20 07:35:32;;;;;;;;;9.00;9.00;;;;;32.99;29.25;99292.97;6093370;28;96816;-61
2022/07/20 07:38:36;;;;;;;;;11.75;10.75;;;;;33.10;28.81;99296.84;6092712;28;96475;-50
2022/07/20 07:41:40;;;;;;;;;10.00;9.60;;;;;33.25;28.01;99295.25;6092332;28;97635;-60
2022/07/20 07:44:43;;;;;;;;;10.00;10.00;;;;;33.40;28.63;99298.03;6092539;28;97606;-60
2022/07/20 07:47:48;;;;;;;;;9.80;9.80;;;;;33.49;27.28;99297.81;6092149;28;97510;-59
2022/07/20 07:50:52;;;;;;;;;9.60;9.60;;;;;33.62;27.07;99296.53;6092444;28;96409;-55
2022/07/20 07:53:55;;;;;;;;;12.00;11.00;;;;;33.74;27.32;99309.59;6092449;28;97471;-62
2022/07/20 07:56:58;;;;;;;;;9.00;9.00;;;;;33.86;27.57;99306.69;6092801;28;96827;-59
2022/07/20 08:00:03;;;;;;;;;9.00;9.00;;;;;34.02;26.54;99301.00;6092617;28;97709;-59
2022/07/20 08:03:14;;;;;;;;;8.00;7.60;;;;;34.15;26.44;99296.91;6091652;28;97452;-53
2022/07/20 08:06:18;;;;;;;;;10.40;10.00;;;;;34.29;26.80;99300.03;6092030;28;96385;-59
2022/07/20 08:09:22;;;;;;;;;10.40;10.00;;;;;34.44;26.77;99306.72;6090822;28;97613;-61
2022/07/20 08:12:26;;;;;;;;;9.00;9.00;;;;;34.60;26.56;99293.44;6091871;28;97745;-59
2022/07/20 08:15:30;;;;;;;;;10.40;10.00;;;;;34.72;26.44;99301.69;6091724;28;97635;-61
2022/07/20 08:18:34;;;;;;;;;9.80;9.80;;;;;34.86;25.57;99298.31;6091784;28;97410;-62
2022/07/20 08:21:38;;;;;;;;;9.00;9.00;;;;;35.01;26.04;99301.00;6092090;28;97468;-63
2022/07/20 08:24:41;;;;;;;;;9.00;9.00;;;;;35.10;25.69;99295.13;6092349;28;97139;-55
2022/07/20 08:27:44;;;;;;;;;10.25;10.25;;;;;35.18;24.52;99292.13;6091683;28;97612;-62
2022/07/20 08:30:51;;;;;;;;;9.00;9.00;;;;;35.25;25.61;99290.59;6090939;28;96928;-57
2022/07/20 08:34:03;;;;;;;;;11.00;10.40;;;;;35.33;24.63;99293.16;6091720;28;96649;-60
2022/07/20 08:37:06;;;;;;;;;9.80;8.80;;;;;35.43;24.66;99297.31;6092061;28;96417;-61
2022/07/20 08:40:10;;;;;;;;;8.20;8.20;;;;;35.51;24.72;99287.81;6091826;28;97223;-62
2022/07/20 08:43:17;;;;;;;;;11.00;10.00;;;;;35.61;24.61;99298.38;6091461;28;97090;-60
2022/07/20 08:46:22;;;;;;;;;9.60;9.60;;;;;35.71;24.63;99285.72;6091634;28;97519;-60
2022/07/20 08:49:29;;;;;;;;;10.00;9.00;;;;;35.78;23.63;99289.41;6091593;28;96599;-62
2022/07/20 08:52:32;;;;;;;;;11.00;10.40;;;;;35.85;23.55;99285.91;6091472;28;96801;-57
2022/07/20 08:55:36;;;;;;;;;9.00;9.00;;;;;35.96;22.93;99287.69;6091412;28;96869;-58
2022/07/20 08:58:39;;;;;;;;;9.50;9.00;;;;;36.10;23.23;99287.03;6085005;28;97461;-61
2022/07/20 09:01:59;;;;;;;;;8.60;8.60;;;;;36.21;23.00;99295.63;6067883;28;97657;-57
2022/07/20 09:05:05;;;;;;;;;8.00;8.00;;;;;36.33;23.15;99296.16;6067624;28;97957;-56
2022/07/20 09:08:12;;;;;;;;;8.00;8.00;;;;;36.07;23.65;99220.44;6071222;28;97457;-57
2022/07/20 09:11:18;;;;;;;;;9.00;8.33;;;;;36.57;21.88;99289.19;6091348;28;97516;-61
2022/07/20 09:14:40;;;;;;;;;11.00;10.00;;;;;36.61;22.17;99278.03;6091800;28;98215;-63
2022/07/20 09:17:44;;;;;;;;;7.00;7.00;;;;;36.64;22.65;99282.88;6091088;28;97575;-55
2022/07/20 09:20:54;;;;;;;;;8.00;7.20;;;;;36.62;21.95;99280.47;6090772;28;97009;-56
2022/07/20 09:24:03;;;;;;;;;11.00;10.00;;;;;36.66;21.88;99278.47;6090536;28;97144;-56
2022/07/20 09:27:06;;;;;;;;;9.00;9.00;;;;;36.70;22.37;99275.72;6091189;28;97440;-60
2022/07/20 09:30:12;;;;;;;;;9.00;9.00;;;;;36.81;20.86;99274.63;6091222;28;96883;-60
2022/07/20 09:33:23;;;;;;;;;11.40;10.40;;;;;36.92;21.54;99271.09;6090860;28;96971;-57
2022/07/20 09:36:30;;;;;;;;;7.00;6.60;;;;;36.96;22.60;99272.75;6089780;28;97034;-60
2022/07/20 09:39:33;;;;;;;;;6.50;6.25;;;;;36.91;22.78;99256.25;6089387;28;98111;-53
2022/07/20 09:42:37;;;;;;;;;10.00;9.00;;;;;36.96;22.71;99269.13;6078135;28;97588;-58
2022/07/20 09:45:40;;;;;;;;;10.00;10.00;;;;;36.98;21.22;99264.75;6076589;28;97055;-55
2022/07/20 09:48:47;;;;;;;;;9.00;8.00;;;;;37.00;22.96;99264.34;6087257;28;97484;-61
2022/07/20 09:52:00;;;;;;;;;10.00;9.00;;;;;36.83;23.11;99229.28;6087290;28;96434;-52
2022/07/20 09:55:24;;;;;;;;;9.00;8.00;;;;;37.08;22.92;99263.25;6087940;28;97483;-60
2022/07/20 09:58:31;;;;;;;;;10.00;8.00;;;;;37.11;22.70;99262.44;6083900;28;97489;-61
2022/07/20 10:01:36;;;;;;;;;12.00;11.00;;;;;37.12;22.87;99261.25;6088024;28;97459;-57
2022/07/20 10:04:40;;;;;;;;;10.00;10.00;;;;;37.05;21.12;99261.16;6088314;28;96766;-53
2022/07/20 10:07:46;;;;;;;;;11.60;11.60;;;;;37.12;20.44;99264.06;6087216;28;97065;-58
2022/07/20 10:10:49;;;;;;;;;10.00;10.00;;;;;37.17;21.29;99255.28;6085867;28;97056;-64
2022/07/20 10:13:54;;;;;;;;;8.50;8.50;;;;;37.19;22.38;99261.31;6086707;28;97822;-57
2022/07/20 10:16:58;;;;;;;;;12.00;10.50;;;;;37.25;21.72;99256.94;6088534;28;97150;-51
2022/07/20 10:20:01;;;;;;;;;8.00;8.00;;;;;37.35;22.26;99256.19;6088129;28;97737;-63
2022/07/20 10:23:39;;;;;;;;;7.00;7.00;;;;;37.28;22.11;99248.53;6088474;28;97068;-60
2022/07/20 10:26:43;;;;;;;;;8.00;8.00;;;;;37.11;22.68;99242.78;6088555;28;97066;-60
2022/07/20 10:29:50;;;;;;;;;10.00;10.00;;;;;36.97;22.09;99253.88;6071209;28;97001;-61
2022/07/20 10:32:57;;;;;;;;;10.60;9.60;;;;;36.89;22.08;99241.78;6078361;28;96492;-60
2022/07/20 10:39:46;;;;;;;;;9.00;9.00;;;;;36.74;22.44;99251.28;6068607;28;96733;-58
2022/07/20 10:42:53;;;;;;;;;10.75;10.75;;;;;36.71;21.76;99250.03;6089759;28;96604;-61
2022/07/20 10:45:56;;;;;;;;;9.00;8.00;;;;;36.82;21.87;99244.53;6093895;28;96355;-58
2022/07/20 10:49:00;;;;;;;;;12.00;11.80;;;;;36.99;22.28;99251.50;6069368;28;96852;-56
2022/07/20 10:52:27;;;;;;;;;12.25;11.00;;;;;37.03;22.33;99241.09;6076915;28;96814;-55
2022/07/20 10:55:52;;;;;;;;;9.00;9.00;;;;;37.15;19.98;99240.78;6070033;28;97446;-60
2022/07/20 10:59:00;;;;;;;;;10.75;10.00;;;;;37.25;21.25;99240.06;6082646;28;96714;-57
2022/07/20 11:02:03;;;;;;;;;8.00;8.00;;;;;37.37;21.02;99230.50;6090116;28;97797;-57
2022/07/20 11:05:20;;;;;;;;;7.00;7.00;;;;;37.44;21.71;99236.16;6092543;28;96821;-64
2022/07/20 11:08:24;;;;;;;;;9.00;7.40;;;;;37.34;21.67;99229.28;6085407;28;97626;-64
2022/07/20 11:11:31;;;;;;;;;8.80;8.00;;;;;37.24;22.27;99232.84;6088265;28;98596;-55
2022/07/20 11:14:51;;;;;;;;;11.00;9.50;;;;;37.11;21.64;99226.72;6087140;28;98083;-64
2022/07/20 11:17:55;;;;;;;;;9.00;8.00;;;;;37.13;22.08;99224.34;6093033;28;96476;-57
2022/07/20 11:21:01;;;;;;;;;10.00;10.00;;;;;37.32;20.03;99220.44;6091132;28;97750;-51
2022/07/20 11:24:05;;;;;;;;;10.40;10.00;;;;;37.55;21.44;99223.00;6093066;28;98276;-58
2022/07/20 11:27:17;;;;;;;;;9.00;9.00;;;;;37.66;21.00;99216.22;6093109;28;97490;-60
2022/07/20 11:30:32;;;;;;;;;11.00;11.00;;;;;37.73;19.70;99233.13;6092948;28;97431;-56
2022/07/20 11:33:38;;;;;;;;;7.00;6.50;;;;;37.82;20.90;99226.34;6092420;28;96692;-59
2022/07/20 11:36:41;;;;;;;;;9.60;9.60;;;;;37.81;20.47;99224.75;6086942;28;97233;-57
2022/07/20 11:39:46;;;;;;;;;9.60;9.60;;;;;37.80;20.83;99221.13;6078386;28;97502;-62
2022/07/20 11:43:08;;;;;;;;;11.00;10.60;;;;;37.73;20.09;99218.25;6092404;28;97421;-60
2022/07/20 11:46:14;;;;;;;;;7.80;7.00;;;;;37.69;21.16;99209.81;6092737;28;96891;-57
2022/07/20 11:49:18;;;;;;;;;9.00;9.00;;;;;37.66;19.89;99210.59;6092594;28;97087;-62
2022/07/20 11:52:38;;;;;;;;;8.67;8.00;;;;;37.71;19.60;99213.03;6089094;28;97383;-61
2022/07/20 11:55:42;;;;;;;;;10.00;9.40;;;;;37.77;19.20;99207.03;6092135;28;97000;-55
2022/07/20 11:58:48;;;;;;;;;10.00;8.00;;;;;37.85;19.00;99211.47;6091788;28;97575;-58
2022/07/20 12:01:55;;;;;;;;;13.00;12.00;;;;;37.90;20.63;99203.47;6092282;28;97190;-57
2022/07/20 12:04:59;;;;;;;;;7.00;7.00;;;;;38.03;20.44;99199.09;6092851;28;97445;-58
2022/07/20 12:08:12;;;;;;;;;11.00;10.00;;;;;38.13;19.25;99198.34;6091385;28;97051;-57
2022/07/20 12:11:15;;;;;;;;;9.00;8.60;;;;;38.24;19.75;99191.91;6091937;28;97223;-60
2022/07/20 12:14:30;;;;;;;;;10.50;9.50;;;;;38.33;19.16;99197.97;6092298;28;96354;-61
2022/07/20 12:17:54;;;;;;;;;9.00;8.00;;;;;38.25;20.57;99179.47;6092123;28;97634;-57
2022/07/20 12:21:02;;;;;;;;;10.00;8.80;;;;;38.32;20.83;99197.16;6091672;28;97387;-58
2022/07/20 12:24:05;;;;;;;;;11.00;10.80;;;;;38.28;21.18;99192.72;6092255;28;97424;-62
2022/07/20 12:27:09;;;;;;;;;10.40;10.40;;;;;38.26;21.07;99192.34;6091503;28;96686;-55
2022/07/20 12:30:31;;;;;;;;;11.50;10.00;;;;;38.28;19.93;99184.28;6091435;28;96562;-61
2022/07/20 12:33:34;;;;;;;;;12.00;10.00;;;;;38.30;20.57;99179.88;6090878;28;96780;-56
2022/07/20 12:36:40;;;;;;;;;14.60;14.00;;;;;38.29;21.01;99177.44;6090567;28;97448;-55
2022/07/20 12:39:47;;;;;;;;;11.00;11.00;;;;;38.29;21.07;99185.91;6091666;28;98156;-58
2022/07/20 12:42:50;;;;;;;;;11.00;8.00;;;;;38.25;19.50;99182.28;6091352;28;97048;-58
2022/07/20 12:46:01;;;;;;;;;14.00;13.00;;;;;38.25;19.45;99182.28;6090898;28;96827;-58
2022/07/20 12:49:05;;;;;;;;;10.40;10.00;;;;;38.27;19.29;99179.88;6090375;28;96909;-58
2022/07/20 12:52:08;;;;;;;;;9.00;9.00;;;;;38.30;20.87;99188.31;6091308;28;96425;-61
2022/07/20 12:55:12;;;;;;;;;11.00;10.60;;;;;38.33;20.82;99176.25;6090739;28;97027;-62
2022/07/20 12:58:15;;;;;;;;;9.75;9.75;;;;;38.33;20.55;99186.69;6091435;28;96447;-62
2022/07/20 13:01:20;;;;;;;;;10.75;10.75;;;;;38.25;20.02;99185.09;6105666;28;97743;-55
2022/07/20 13:04:25;;;;;;;;;9.00;8.00;;;;;38.17;20.68;99170.16;6091238;28;97601;-61
2022/07/20 13:07:33;;;;;;;;;12.00;11.00;;;;;38.13;20.95;99183.44;6089416;28;96725;-55
2022/07/20 13:10:37;;;;;;;;;13.00;10.40;;;;;38.03;20.31;99176.59;6091029;28;96885;-61
2022/07/20 13:13:40;;;;;;;;;11.00;9.80;;;;;37.94;21.11;99176.13;6090829;28;97481;-60
2022/07/20 13:16:51;;;;;;;;;9.00;9.00;;;;;37.85;21.61;99166.44;6082088;28;97533;-49
2022/07/20 13:19:54;;;;;;;;;10.60;10.60;;;;;37.86;20.88;99168.88;6067244;28;96453;-56
2022/07/20 13:22:58;;;;;;;;;10.60;9.00;;;;;37.85;20.99;99161.63;6088217;28;97751;-64
2022/07/20 13:26:02;;;;;;;;;11.00;11.00;;;;;37.84;21.46;99164.84;6090187;28;96982;-55
2022/07/20 13:29:09;;;;;;;;;12.00;11.60;;;;;37.79;21.69;99160.41;6090452;28;99331;-56
2022/07/20 13:32:13;;;;;;;;;11.25;11.00;;;;;37.86;21.16;99166.06;6090517;28;97367;-58
2022/07/20 13:35:17;;;;;;;;;12.00;10.60;;;;;37.79;21.65;99140.69;6088765;28;96922;-55
2022/07/20 13:38:21;;;;;;;;;11.00;11.00;;;;;38.06;20.60;99155.28;6089348;28;97446;-56
2022/07/20 13:41:25;;;;;;;;;13.00;13.00;;;;;38.21;20.37;99156.94;6089298;28;98204;-60
2022/07/20 13:44:28;;;;;;;;;11.00;10.00;;;;;38.35;20.23;99151.31;6089588;28;97556;-55
2022/07/20 13:47:34;;;;;;;;;10.20;10.00;;;;;38.37;21.15;99157.34;6090594;28;96293;-52
2022/07/20 13:50:37;;;;;;;;;9.20;9.00;;;;;38.46;20.06;99151.34;6089852;28;97432;-57
2022/07/20 13:54:01;;;;;;;;;8.00;8.00;;;;;38.49;20.48;99150.53;6090685;28;96387;-59
2022/07/20 13:57:06;;;;;;;;;10.00;10.00;;;;;38.39;20.63;99137.22;6090017;28;98158;-63
2022/07/20 14:00:11;;;;;;;;;10.00;10.00;;;;;38.27;20.96;99135.59;6090266;28;98713;-54
2022/07/20 14:03:16;;;;;;;;;10.00;10.00;;;;;38.17;21.03;99140.00;6089816;28;97394;-54
2022/07/20 14:06:21;;;;;;;;;11.00;10.00;;;;;38.03;21.06;99109.03;6089943;28;97460;-55
2022/07/20 14:09:24;;;;;;;;;9.00;8.00;;;;;38.06;21.10;99122.31;6094356;28;97026;-54
2022/07/20 14:12:29;;;;;;;;;11.00;10.00;;;;;37.93;20.74;99132.28;6094385;28;96970;-57
2022/07/20 14:15:33;;;;;;;;;11.00;10.40;;;;;37.93;20.89;99128.66;6094078;28;97850;-57
2022/07/20 14:18:37;;;;;;;;;10.00;9.00;;;;;37.95;21.38;99126.28;6094128;28;97986;-62
2022/07/20 14:21:41;;;;;;;;;9.60;9.60;;;;;37.89;21.13;99120.22;6093878;28;97604;-63
2022/07/20 14:24:44;;;;;;;;;9.40;8.00;;;;;37.75;21.32;99114.56;6094222;28;96977;-60
2022/07/20 14:27:48;;;;;;;;;11.00;10.00;;;;;37.61;21.93;99120.97;6094537;28;97475;-62
2022/07/20 14:30:52;;;;;;;;;9.20;8.20;;;;;37.57;21.34;99108.09;6094180;28;97333;-60